createdAt,value
2023-03-31T00:00:54.648Z,56.60
2023-03-31T00:03:24.500Z,56.30
2023-03-31T00:05:58.492Z,56.30
2023-03-31T00:08:30.841Z,56.70
2023-03-31T00:11:02.193Z,56.90
2023-03-31T00:13:31.097Z,57.30
2023-03-31T00:16:00.704Z,57.10
2023-03-31T00:18:30.062Z,57.00
2023-03-31T00:21:08.988Z,57.10
2023-03-31T00:23:37.461Z,57.10
2023-03-31T00:26:07.362Z,57.40
2023-03-31T00:28:36.040Z,57.10
2023-03-31T00:31:05.002Z,57.20
2023-03-31T00:33:33.168Z,57.00
2023-03-31T00:36:02.315Z,56.90
2023-03-31T00:38:31.116Z,57.20
2023-03-31T00:40:59.694Z,57.70
2023-03-31T00:43:34.372Z,58.00
2023-03-31T00:46:08.427Z,58.00
2023-03-31T00:48:38.660Z,58.80
2023-03-31T00:51:08.437Z,58.80
2023-03-31T00:53:38.163Z,59.30
2023-03-31T00:56:10.420Z,59.50
2023-03-31T00:58:43.918Z,59.90
2023-03-31T01:01:17.278Z,60.20
2023-03-31T01:03:46.881Z,60.50
2023-03-31T01:06:19.780Z,60.60
2023-03-31T01:08:50.124Z,61.10
2023-03-31T01:11:23.194Z,61.40
2023-03-31T01:13:56.399Z,61.80
2023-03-31T01:16:24.934Z,62.00
2023-03-31T01:18:53.317Z,62.10
2023-03-31T01:22:09.110Z,62.20
2023-03-31T01:25:21.317Z,62.50
2023-03-31T01:28:04.915Z,63.10
2023-03-31T01:31:01.409Z,63.50
2023-03-31T01:34:01.428Z,63.80
2023-03-31T01:37:06.557Z,64.50
2023-03-31T01:40:05.326Z,64.90
2023-03-31T01:42:38.246Z,65.50
2023-03-31T01:45:18.015Z,66.00
2023-03-31T01:47:51.223Z,66.80
2023-03-31T01:50:25.851Z,67.20
2023-03-31T01:53:03.182Z,67.70
2023-03-31T01:55:37.822Z,68.20
2023-03-31T01:58:12.542Z,68.40
2023-03-31T02:00:44.820Z,69.00
2023-03-31T02:03:17.909Z,69.20
2023-03-31T02:05:50.885Z,69.30
2023-03-31T02:08:24.111Z,69.50
2023-03-31T02:10:54.851Z,69.70
2023-03-31T02:13:26.893Z,69.90
2023-03-31T02:15:58.512Z,70.20
2023-03-31T02:18:30.762Z,70.60
2023-03-31T02:21:01.125Z,70.80
2023-03-31T02:23:32.778Z,70.90
2023-03-31T02:26:06.190Z,71.10
2023-03-31T02:28:35.630Z,71.50
2023-03-31T02:31:15.529Z,71.50
2023-03-31T02:33:43.829Z,71.90
2023-03-31T02:36:12.448Z,72.00
2023-03-31T02:38:46.314Z,72.20
2023-03-31T02:41:15.944Z,72.30
2023-03-31T02:43:44.305Z,72.60
2023-03-31T02:46:12.823Z,72.80
2023-03-31T02:48:44.703Z,73.00
2023-03-31T02:52:01.226Z,72.90
2023-03-31T02:54:55.039Z,72.90
2023-03-31T02:57:49.237Z,73.00
2023-03-31T03:00:25.625Z,73.00
2023-03-31T03:03:10.172Z,72.90
2023-03-31T03:05:49.818Z,72.70
2023-03-31T03:08:26.999Z,72.70
2023-03-31T03:11:04.191Z,72.70
2023-03-31T03:13:39.245Z,72.90
2023-03-31T03:16:18.924Z,72.90
2023-03-31T03:18:53.631Z,72.90
2023-03-31T03:21:21.830Z,72.90
2023-03-31T03:23:49.957Z,72.80
2023-03-31T03:26:21.567Z,73.00
2023-03-31T03:28:51.131Z,73.10
2023-03-31T03:31:19.748Z,73.10
2023-03-31T03:33:50.085Z,73.10
2023-03-31T03:36:18.546Z,73.00
2023-03-31T03:38:46.778Z,73.00
2023-03-31T03:41:14.944Z,72.80
2023-03-31T03:43:43.122Z,72.90
2023-03-31T03:46:12.728Z,72.70
2023-03-31T03:48:40.984Z,72.80
2023-03-31T03:51:09.184Z,72.90
2023-03-31T03:53:37.325Z,72.30
2023-03-31T03:56:05.955Z,71.90
2023-03-31T03:58:34.271Z,71.50
2023-03-31T04:01:02.393Z,70.20
2023-03-31T04:03:32.000Z,69.50
2023-03-31T04:06:00.240Z,69.00
2023-03-31T04:08:28.367Z,68.40
2023-03-31T04:10:56.584Z,68.00
2023-03-31T04:13:25.010Z,67.50
2023-03-31T04:15:53.169Z,67.20
2023-03-31T04:18:27.670Z,66.80
2023-03-31T04:21:04.172Z,66.40
2023-03-31T04:23:33.234Z,66.30
2023-03-31T04:26:02.812Z,66.00
2023-03-31T04:28:34.985Z,65.90
2023-03-31T04:31:03.847Z,65.80
2023-03-31T04:33:34.171Z,66.00
2023-03-31T04:36:07.631Z,66.00
2023-03-31T04:38:35.916Z,66.10
2023-03-31T04:41:04.067Z,66.20
2023-03-31T04:43:32.264Z,66.30
2023-03-31T04:46:00.421Z,66.30
2023-03-31T04:48:28.552Z,66.20
2023-03-31T04:50:56.671Z,66.10
2023-03-31T04:53:26.305Z,66.40
2023-03-31T04:55:54.756Z,66.50
2023-03-31T04:58:22.935Z,66.80
2023-03-31T05:00:51.140Z,67.20
2023-03-31T05:03:19.400Z,67.40
2023-03-31T05:05:47.577Z,67.60
2023-03-31T05:08:15.664Z,68.10
2023-03-31T05:10:45.602Z,68.40
2023-03-31T05:13:13.748Z,68.90
2023-03-31T05:15:45.067Z,69.10
2023-03-31T05:18:13.232Z,69.80
2023-03-31T05:20:41.457Z,70.30
2023-03-31T05:23:09.635Z,70.70
2023-03-31T05:25:37.800Z,71.10
2023-03-31T05:28:07.404Z,71.40
2023-03-31T05:30:35.608Z,71.80
2023-03-31T05:33:03.781Z,71.10
2023-03-31T05:35:32.187Z,70.80
2023-03-31T05:38:00.364Z,71.10
2023-03-31T05:40:28.557Z,71.20
2023-03-31T05:42:56.709Z,71.10
2023-03-31T05:45:26.225Z,71.50
2023-03-31T05:47:54.436Z,71.80
2023-03-31T05:50:22.678Z,72.10
2023-03-31T05:52:50.852Z,72.40
2023-03-31T05:55:19.516Z,72.70
2023-03-31T05:57:47.621Z,73.00
2023-03-31T06:00:16.949Z,73.30
2023-03-31T06:02:47.029Z,73.70
2023-03-31T06:05:15.542Z,73.90
2023-03-31T06:07:43.675Z,74.10
2023-03-31T06:10:11.987Z,73.40
2023-03-31T06:12:40.097Z,72.00
2023-03-31T06:15:09.173Z,71.70
2023-03-31T06:17:38.463Z,73.10
2023-03-31T06:20:23.981Z,74.20
2023-03-31T06:22:56.009Z,75.20
2023-03-31T06:25:24.176Z,75.30
2023-03-31T06:27:52.356Z,75.50
2023-03-31T06:30:20.705Z,75.50
2023-03-31T06:32:48.875Z,75.70
2023-03-31T06:35:18.495Z,75.40
2023-03-31T06:37:46.789Z,75.70
2023-03-31T06:40:15.098Z,76.00
2023-03-31T06:42:43.219Z,76.00
2023-03-31T06:45:12.035Z,75.90
2023-03-31T06:47:41.614Z,75.80
2023-03-31T06:50:11.655Z,75.50
2023-03-31T06:52:41.941Z,75.30
2023-03-31T06:55:10.971Z,75.40
2023-03-31T06:57:39.306Z,75.00
2023-03-31T07:00:09.088Z,74.50
2023-03-31T07:02:38.170Z,74.30
2023-03-31T07:05:07.083Z,74.30
2023-03-31T07:07:36.739Z,74.30
2023-03-31T07:10:07.335Z,74.30
2023-03-31T07:12:35.679Z,73.90
2023-03-31T07:15:04.083Z,73.60
2023-03-31T07:17:32.217Z,72.70
2023-03-31T07:20:00.419Z,72.10
2023-03-31T07:22:28.536Z,71.90
2023-03-31T07:24:56.743Z,71.40
2023-03-31T07:27:26.521Z,70.90
2023-03-31T07:29:55.188Z,70.30
2023-03-31T07:32:24.155Z,69.50
2023-03-31T07:34:53.332Z,69.60
2023-03-31T07:37:21.576Z,69.40
2023-03-31T07:39:49.767Z,69.70
2023-03-31T07:42:18.018Z,69.20
2023-03-31T07:44:47.545Z,69.10
2023-03-31T07:47:15.646Z,68.70
2023-03-31T07:49:43.748Z,68.60
2023-03-31T07:52:11.835Z,68.30
2023-03-31T07:54:40.000Z,68.60
2023-03-31T07:57:09.167Z,67.60
2023-03-31T07:59:37.376Z,68.00
2023-03-31T08:02:07.164Z,68.10
2023-03-31T08:04:35.666Z,67.80
2023-03-31T08:07:04.044Z,68.00
2023-03-31T08:09:32.224Z,67.40
2023-03-31T08:12:00.357Z,67.20
2023-03-31T08:14:40.496Z,67.00
2023-03-31T08:17:11.251Z,67.10
2023-03-31T08:19:39.430Z,66.30
2023-03-31T08:22:07.647Z,66.90
2023-03-31T08:24:35.756Z,66.00
2023-03-31T08:27:03.898Z,65.80
2023-03-31T08:29:32.048Z,65.80
2023-03-31T08:32:00.252Z,64.90
2023-03-31T08:34:29.734Z,64.80
2023-03-31T08:36:57.838Z,64.40
2023-03-31T08:39:27.256Z,64.70
2023-03-31T08:42:01.389Z,64.30
2023-03-31T08:44:34.166Z,63.90
2023-03-31T08:47:04.134Z,63.60
2023-03-31T08:49:40.531Z,63.10
2023-03-31T08:52:15.664Z,62.30
2023-03-31T08:54:47.773Z,62.80
2023-03-31T08:57:20.070Z,62.50
2023-03-31T08:59:48.285Z,62.20
2023-03-31T09:02:25.556Z,62.50
2023-03-31T09:05:11.427Z,62.50
2023-03-31T09:07:48.440Z,62.10
2023-03-31T09:10:31.106Z,62.20
2023-03-31T09:13:06.236Z,61.80
2023-03-31T09:15:41.675Z,61.50
2023-03-31T09:18:19.866Z,61.60
2023-03-31T09:20:52.650Z,60.90
2023-03-31T09:23:29.225Z,60.90
2023-03-31T09:25:59.114Z,60.70
2023-03-31T09:28:35.030Z,60.60
2023-03-31T09:31:08.137Z,60.40
2023-03-31T09:33:38.728Z,59.40
2023-03-31T09:36:17.024Z,59.20
2023-03-31T09:38:47.029Z,59.10
2023-03-31T09:41:17.247Z,58.00
2023-03-31T09:43:46.237Z,58.40
2023-03-31T09:46:20.287Z,58.10
2023-03-31T09:48:59.359Z,56.50
2023-03-31T09:51:33.358Z,56.70
2023-03-31T09:54:08.793Z,56.60
2023-03-31T09:56:49.213Z,53.90
2023-03-31T09:59:19.710Z,54.00
2023-03-31T10:01:50.557Z,54.50
2023-03-31T10:04:23.701Z,54.40
2023-03-31T10:06:54.715Z,53.20
2023-03-31T10:09:27.520Z,53.20
2023-03-31T10:11:58.694Z,53.30
2023-03-31T10:14:33.526Z,51.40
2023-03-31T10:17:06.352Z,52.10
2023-03-31T10:19:37.773Z,52.20
2023-03-31T10:22:16.157Z,51.70
2023-03-31T10:24:48.350Z,52.10
2023-03-31T10:27:23.152Z,51.40
2023-03-31T10:29:53.975Z,50.60
2023-03-31T10:32:26.104Z,51.40
2023-03-31T10:34:55.271Z,49.70
2023-03-31T10:37:27.608Z,49.20
2023-03-31T10:39:58.897Z,50.30
2023-03-31T10:42:28.828Z,50.10
2023-03-31T10:45:20.377Z,49.90
2023-03-31T10:47:56.304Z,49.90
2023-03-31T10:50:29.604Z,49.30
2023-03-31T10:53:06.203Z,49.40
2023-03-31T10:55:39.450Z,49.70
2023-03-31T10:58:23.824Z,49.70
2023-03-31T11:01:03.580Z,49.80
2023-03-31T11:04:04.804Z,50.10
2023-03-31T11:06:45.049Z,50.10
2023-03-31T11:09:34.088Z,49.40
2023-03-31T11:12:12.969Z,49.50
2023-03-31T11:14:49.665Z,48.60
2023-03-31T11:17:36.879Z,48.40
2023-03-31T11:20:20.107Z,47.50
2023-03-31T11:22:56.274Z,48.60
2023-03-31T11:25:35.163Z,48.50
2023-03-31T11:28:33.278Z,48.70
2023-03-31T11:31:21.012Z,48.30
2023-03-31T11:34:02.092Z,48.90
2023-03-31T11:36:53.701Z,49.70
2023-03-31T11:39:34.452Z,52.60
2023-03-31T11:42:08.950Z,52.80
2023-03-31T11:44:41.515Z,53.10
2023-03-31T11:47:14.366Z,52.70
2023-03-31T11:49:45.014Z,53.10
2023-03-31T11:52:17.871Z,52.60
2023-03-31T11:54:55.674Z,51.40
2023-03-31T11:57:30.745Z,51.20
2023-03-31T12:00:02.873Z,51.50
2023-03-31T12:02:40.835Z,54.80
2023-03-31T12:05:11.488Z,56.20
2023-03-31T12:07:44.969Z,56.50
2023-03-31T12:10:21.785Z,56.50
2023-03-31T12:12:56.827Z,56.80
2023-03-31T12:15:28.716Z,56.90
2023-03-31T12:18:02.020Z,57.10
2023-03-31T12:20:37.946Z,57.10
2023-03-31T12:23:11.405Z,56.60
2023-03-31T12:25:49.153Z,56.00
2023-03-31T12:28:20.739Z,55.20
2023-03-31T12:30:49.828Z,55.10
2023-03-31T12:33:23.825Z,54.50
2023-03-31T12:36:05.011Z,55.00
2023-03-31T12:38:47.537Z,53.90
2023-03-31T12:41:21.180Z,52.60
2023-03-31T12:44:22.265Z,51.20
2023-03-31T12:47:14.156Z,50.30
2023-03-31T12:50:02.191Z,50.30
2023-03-31T12:52:43.920Z,49.50
2023-03-31T12:55:38.313Z,50.40
2023-03-31T12:58:45.425Z,49.10
2023-03-31T13:01:22.744Z,48.80
2023-03-31T13:04:08.415Z,48.40
2023-03-31T13:06:59.872Z,49.20
2023-03-31T13:09:48.899Z,49.20
2023-03-31T13:12:19.807Z,48.60
2023-03-31T13:14:51.768Z,49.80
2023-03-31T13:17:28.243Z,49.60
2023-03-31T13:19:58.345Z,49.90
2023-03-31T13:22:33.101Z,50.40
2023-03-31T13:25:34.659Z,50.30
2023-03-31T13:28:13.847Z,51.00
2023-03-31T13:30:53.901Z,50.90
2023-03-31T13:33:39.595Z,51.10
2023-03-31T13:36:34.087Z,52.00
2023-03-31T13:39:14.576Z,52.90
2023-03-31T13:41:51.637Z,54.70
2023-03-31T13:44:57.912Z,56.40
2023-03-31T13:48:01.231Z,60.20
2023-03-31T13:50:54.569Z,62.00
2023-03-31T13:53:47.609Z,63.20
2023-03-31T13:56:39.136Z,64.10
2023-03-31T13:59:26.528Z,64.90
2023-03-31T14:02:28.633Z,66.00
2023-03-31T14:05:11.432Z,65.90
2023-03-31T14:07:46.832Z,65.90
2023-03-31T14:10:28.474Z,66.20
2023-03-31T14:13:07.259Z,66.00
2023-03-31T14:15:38.705Z,65.90
2023-03-31T14:18:08.445Z,66.20
2023-03-31T14:20:43.215Z,66.30
2023-03-31T14:23:36.025Z,65.70
2023-03-31T14:26:08.374Z,65.60
2023-03-31T14:29:11.120Z,66.20
2023-03-31T14:31:46.284Z,66.50
2023-03-31T14:34:33.168Z,67.10
2023-03-31T14:37:03.320Z,67.20
2023-03-31T14:39:37.603Z,68.20
2023-03-31T14:42:07.552Z,67.80
2023-03-31T14:44:36.114Z,68.10
2023-03-31T14:47:04.341Z,68.10
2023-03-31T14:49:37.281Z,67.80
2023-03-31T14:52:16.286Z,67.10
2023-03-31T14:54:48.176Z,66.50
2023-03-31T14:57:21.653Z,66.00
2023-03-31T14:59:52.779Z,66.10
2023-03-31T15:02:30.406Z,65.80
2023-03-31T15:04:59.005Z,65.20
2023-03-31T15:07:28.596Z,64.70
2023-03-31T15:09:58.201Z,64.20
2023-03-31T15:12:26.664Z,64.10
2023-03-31T15:14:58.791Z,63.30
2023-03-31T15:17:29.747Z,63.10
2023-03-31T15:19:59.884Z,62.70
2023-03-31T15:22:29.993Z,62.40
2023-03-31T15:24:59.620Z,62.60
2023-03-31T15:27:37.122Z,62.90
2023-03-31T15:30:08.353Z,62.30
2023-03-31T15:32:37.913Z,62.10
2023-03-31T15:35:21.051Z,62.40
2023-03-31T15:37:53.149Z,62.50
2023-03-31T15:40:24.870Z,61.80
2023-03-31T15:43:06.220Z,61.10
2023-03-31T15:45:51.341Z,61.40
2023-03-31T15:48:25.289Z,60.70
2023-03-31T15:50:54.234Z,61.10
2023-03-31T15:53:27.480Z,61.40
2023-03-31T15:55:59.848Z,60.70
2023-03-31T15:59:04.458Z,60.60
2023-03-31T16:01:35.628Z,60.50
2023-03-31T16:04:08.504Z,60.40
2023-03-31T16:06:44.474Z,59.90
2023-03-31T16:09:17.735Z,59.60
2023-03-31T16:11:51.440Z,59.90
2023-03-31T16:14:22.425Z,60.10
2023-03-31T16:16:55.233Z,60.00
2023-03-31T16:19:26.243Z,60.20
2023-03-31T16:21:59.642Z,60.40
2023-03-31T16:24:32.812Z,60.20
2023-03-31T16:27:06.554Z,60.20
2023-03-31T16:29:37.078Z,60.10
2023-03-31T16:32:21.175Z,60.10
2023-03-31T16:34:58.066Z,60.30
2023-03-31T16:37:27.227Z,60.20
2023-03-31T16:39:55.788Z,60.30
2023-03-31T16:42:26.122Z,60.70
2023-03-31T16:47:35.246Z,60.20
2023-03-31T16:50:07.488Z,60.30
2023-03-31T16:52:36.105Z,60.20
2023-03-31T16:55:04.449Z,60.40
2023-03-31T16:57:36.777Z,61.10
2023-03-31T17:00:05.677Z,61.20
2023-03-31T17:02:33.885Z,61.20
2023-03-31T17:05:12.649Z,61.10
2023-03-31T17:07:41.782Z,61.20
2023-03-31T17:10:10.779Z,60.90
2023-03-31T17:12:40.702Z,61.00
2023-03-31T17:15:10.218Z,61.10
2023-03-31T17:17:38.589Z,61.70
2023-03-31T17:20:08.100Z,62.00
2023-03-31T17:22:37.344Z,62.10
2023-03-31T17:25:06.999Z,62.10
2023-03-31T17:27:35.581Z,61.80
2023-03-31T17:30:06.384Z,61.80
2023-03-31T17:32:34.676Z,61.80
2023-03-31T17:35:03.850Z,61.80
2023-03-31T17:37:32.051Z,62.00
2023-03-31T17:40:00.367Z,61.90
2023-03-31T17:42:28.519Z,61.80
2023-03-31T17:44:58.553Z,61.60
2023-03-31T17:47:28.126Z,61.90
2023-03-31T17:49:56.272Z,61.80
2023-03-31T17:52:25.033Z,61.90
2023-03-31T17:54:53.427Z,62.10
2023-03-31T17:57:21.654Z,62.00
2023-03-31T17:59:49.816Z,61.80
2023-03-31T18:02:18.669Z,62.10
2023-03-31T18:04:49.025Z,62.50
2023-03-31T18:07:18.315Z,62.80
2023-03-31T18:09:46.457Z,63.20
2023-03-31T18:12:14.643Z,63.60
2023-03-31T18:14:42.757Z,63.60
2023-03-31T18:17:14.937Z,63.70
2023-03-31T18:19:43.274Z,63.70
2023-03-31T18:22:12.958Z,63.60
2023-03-31T18:24:41.048Z,63.50
2023-03-31T18:27:09.273Z,63.30
2023-03-31T18:29:39.463Z,63.00
2023-03-31T18:32:07.835Z,63.30
2023-03-31T18:34:36.750Z,63.00
2023-03-31T18:37:05.659Z,63.00
2023-03-31T18:39:35.363Z,62.90
2023-03-31T18:42:04.173Z,62.40
2023-03-31T18:44:32.740Z,62.40
2023-03-31T18:47:01.067Z,62.20
2023-03-31T18:49:29.236Z,62.00
2023-03-31T18:51:58.784Z,62.00
2023-03-31T18:54:26.924Z,62.10
2023-03-31T18:56:56.675Z,62.10
2023-03-31T18:59:25.118Z,62.10
2023-03-31T19:01:53.524Z,61.90
2023-03-31T19:04:21.957Z,62.10
2023-03-31T19:06:50.088Z,62.20
2023-03-31T19:09:19.346Z,62.20
2023-03-31T19:11:47.506Z,62.30
2023-03-31T19:14:17.168Z,62.30
2023-03-31T19:16:45.631Z,62.20
2023-03-31T19:19:13.784Z,62.30
2023-03-31T19:21:42.854Z,62.10
2023-03-31T19:24:11.488Z,62.20
2023-03-31T19:26:39.796Z,62.10
2023-03-31T19:29:08.044Z,62.00
2023-03-31T19:31:40.659Z,62.00
2023-03-31T19:34:11.556Z,61.80
2023-03-31T19:36:41.604Z,61.90
2023-03-31T19:39:11.563Z,62.00
2023-03-31T19:41:39.702Z,62.30
2023-03-31T19:44:07.925Z,62.40
2023-03-31T19:46:37.602Z,62.50
2023-03-31T19:49:05.918Z,62.80
2023-03-31T19:51:34.603Z,62.70
2023-03-31T19:54:02.810Z,62.90
2023-03-31T19:56:32.286Z,63.00
2023-03-31T19:59:00.399Z,63.00
2023-03-31T20:01:29.143Z,63.40
2023-03-31T20:03:58.864Z,64.10
2023-03-31T20:06:29.286Z,64.30
2023-03-31T20:08:59.534Z,64.70
2023-03-31T20:11:28.902Z,64.60
2023-03-31T20:13:57.502Z,65.10
2023-03-31T20:16:27.577Z,65.70
2023-03-31T20:18:58.737Z,66.20
2023-03-31T20:21:28.786Z,67.20
2023-03-31T20:23:58.920Z,67.40
2023-03-31T20:26:29.599Z,67.30
2023-03-31T20:28:58.315Z,67.30
2023-03-31T20:31:28.168Z,67.60
2023-03-31T20:33:58.746Z,67.30
2023-03-31T20:36:31.633Z,67.50
2023-03-31T20:39:04.158Z,67.80
2023-03-31T20:41:32.501Z,67.80
2023-03-31T20:44:01.839Z,68.00
2023-03-31T20:46:30.385Z,67.60
2023-03-31T20:49:00.823Z,67.50
2023-03-31T20:51:31.137Z,67.40
2023-03-31T20:54:01.333Z,67.50
2023-03-31T20:56:31.082Z,67.80
2023-03-31T20:59:00.204Z,68.00
2023-03-31T21:01:29.740Z,67.90
2023-03-31T21:04:01.185Z,68.10
2023-03-31T21:06:31.161Z,68.40
2023-03-31T21:08:59.605Z,69.00
2023-03-31T21:11:28.333Z,68.80
2023-03-31T21:13:56.516Z,68.80
2023-03-31T21:16:25.414Z,69.00
2023-03-31T21:18:54.976Z,68.90
2023-03-31T21:21:25.714Z,68.90
2023-03-31T21:23:57.244Z,68.70
2023-03-31T21:26:25.960Z,68.50
2023-03-31T21:28:54.896Z,68.60
2023-03-31T21:31:24.917Z,68.30
2023-03-31T21:33:56.607Z,68.20
2023-03-31T21:36:26.854Z,68.20
2023-03-31T21:38:56.009Z,68.00
2023-03-31T21:41:25.970Z,67.90
2023-03-31T21:43:54.769Z,67.80
2023-03-31T21:46:26.105Z,67.70
2023-03-31T21:48:55.062Z,67.50
2023-03-31T21:51:25.197Z,67.40
2023-03-31T21:53:55.741Z,67.30
2023-03-31T21:56:24.699Z,67.30
2023-03-31T21:58:53.325Z,67.30
2023-03-31T22:01:22.545Z,67.60
2023-03-31T22:03:51.853Z,68.30
2023-03-31T22:06:20.784Z,68.90
2023-03-31T22:08:50.905Z,69.40
2023-03-31T22:11:19.107Z,69.50
2023-03-31T22:13:47.997Z,69.80
2023-03-31T22:16:19.020Z,70.40
2023-03-31T22:18:50.023Z,70.60
2023-03-31T22:21:20.959Z,71.20
2023-03-31T22:23:52.340Z,71.20
2023-03-31T22:26:20.720Z,71.60
2023-03-31T22:28:50.618Z,72.10
2023-03-31T22:31:19.020Z,72.40
2023-03-31T22:33:47.194Z,72.50
2023-03-31T22:36:15.797Z,72.70
2023-03-31T22:38:44.022Z,72.90
2023-03-31T22:41:13.656Z,72.80
2023-03-31T22:43:44.576Z,73.30
2023-03-31T22:46:14.540Z,73.40
2023-03-31T22:48:42.850Z,73.10
2023-03-31T22:51:12.105Z,73.00
2023-03-31T22:53:40.533Z,73.00
2023-03-31T22:56:11.438Z,72.80
2023-03-31T22:58:40.978Z,72.70
2023-03-31T23:01:14.704Z,72.80
2023-03-31T23:03:43.240Z,72.80
2023-03-31T23:06:12.296Z,72.90
2023-03-31T23:08:40.567Z,73.30
2023-03-31T23:11:11.086Z,73.10
2023-03-31T23:13:40.939Z,73.70
2023-03-31T23:16:10.873Z,73.80
2023-03-31T23:18:44.279Z,73.90
2023-03-31T23:21:12.708Z,74.00
2023-03-31T23:23:42.277Z,73.80
2023-03-31T23:26:12.407Z,73.60
2023-03-31T23:28:42.572Z,73.20
2023-03-31T23:31:11.395Z,73.10
2023-03-31T23:33:39.516Z,73.00
2023-03-31T23:36:08.686Z,72.90
2023-03-31T23:38:37.086Z,72.80
2023-03-31T23:41:05.273Z,72.80
2023-03-31T23:43:33.397Z,72.80
2023-03-31T23:46:04.923Z,72.80
2023-03-31T23:48:33.145Z,72.70
2023-03-31T23:51:01.341Z,72.80
2023-03-31T23:53:29.756Z,72.50
2023-03-31T23:56:00.145Z,72.30
2023-03-31T23:58:28.534Z,72.20
